createdAt,value
2022-09-23T00:01:15.668Z,99154.59
2022-09-23T00:03:45.288Z,99156.69
2022-09-23T00:06:32.249Z,99155.25
2022-09-23T00:08:58.808Z,99150.78
2022-09-23T00:11:27.823Z,99154.78
2022-09-23T00:13:59.871Z,99148.41
2022-09-23T00:16:34.008Z,99152.22
2022-09-23T00:19:04.674Z,99150.94
2022-09-23T00:21:31.316Z,99144.03
2022-09-23T00:23:57.908Z,99148.69
2022-09-23T00:26:24.627Z,99146.09
2022-09-23T00:28:51.523Z,99145.25
2022-09-23T00:31:26.203Z,99147.16
2022-09-23T00:33:58.848Z,99136.78
2022-09-23T00:36:26.986Z,99146.16
2022-09-23T00:38:54.053Z,99136.56
2022-09-23T00:41:21.357Z,99134.09
2022-09-23T00:43:57.636Z,99130.81
2022-09-23T00:46:40.117Z,99136.84
2022-09-23T00:49:21.161Z,99131.06
2022-09-23T00:51:55.833Z,99130.88
2022-09-23T00:54:27.203Z,99132.34
2022-09-23T00:56:55.611Z,99134.69
2022-09-23T00:59:26.216Z,99131.22
2022-09-23T01:01:55.991Z,99124.84
2022-09-23T01:04:24.541Z,99126.22
2022-09-23T01:06:51.199Z,99122.97
2022-09-23T01:09:18.422Z,99116.72
2022-09-23T01:12:26.939Z,99116.41
2022-09-23T01:15:01.577Z,99113.91
2022-09-23T01:17:53.071Z,99111.22
2022-09-23T01:21:06.899Z,99106.53
2022-09-23T01:24:36.238Z,99096.44
2022-09-23T01:27:32.290Z,99095.44
2022-09-23T01:30:36.370Z,99099.91
2022-09-23T01:33:25.236Z,99108.94
2022-09-23T01:36:07.380Z,99104.78
2022-09-23T01:39:08.094Z,99105.25
2022-09-23T01:41:52.517Z,99101.53
2022-09-23T01:44:36.153Z,99099.69
2022-09-23T01:47:18.721Z,99097.06
2022-09-23T01:50:00.360Z,99092.69
2022-09-23T01:52:39.931Z,99090.00
2022-09-23T01:55:16.991Z,99096.34
2022-09-23T01:57:59.739Z,99099.09
2022-09-23T02:00:30.168Z,99083.75
2022-09-23T02:03:15.517Z,99086.50
2022-09-23T02:06:02.733Z,99086.22
2022-09-23T02:08:39.320Z,99080.44
2022-09-23T02:11:12.128Z,99086.88
2022-09-23T02:13:56.353Z,99087.75
2022-09-23T02:16:43.612Z,99081.22
2022-09-23T02:19:34.395Z,99078.22
2022-09-23T02:22:12.982Z,99078.88
2022-09-23T02:24:40.098Z,99085.63
2022-09-23T02:27:32.262Z,99076.97
2022-09-23T02:30:38.859Z,99068.63
2022-09-23T02:33:15.311Z,99076.34
2022-09-23T02:35:59.166Z,99074.31
2022-09-23T02:38:45.278Z,99071.44
2022-09-23T02:41:32.388Z,99068.91
2022-09-23T02:44:15.758Z,99072.19
2022-09-23T02:46:44.402Z,99071.53
2022-09-23T02:49:20.594Z,99067.44
2022-09-23T02:51:47.576Z,99068.69
2022-09-23T02:54:22.752Z,99056.81
2022-09-23T02:56:49.629Z,99051.50
2022-09-23T02:59:19.396Z,99045.44
2022-09-23T03:02:08.553Z,99044.16
2022-09-23T03:05:07.319Z,99054.34
2022-09-23T03:08:12.808Z,99037.72
2022-09-23T03:11:06.778Z,99038.25
2022-09-23T03:14:17.283Z,99035.72
2022-09-23T03:16:50.227Z,99035.03
2022-09-23T03:19:42.284Z,99038.25
2022-09-23T03:22:18.332Z,99038.19
2022-09-23T03:24:49.717Z,99039.94
2022-09-23T03:27:25.723Z,99039.72
2022-09-23T03:29:53.997Z,99039.78
2022-09-23T03:32:26.644Z,99040.34
2022-09-23T03:35:02.085Z,99038.41
2022-09-23T03:38:17.199Z,99042.75
2022-09-23T03:40:47.722Z,99033.41
2022-09-23T03:43:14.438Z,99033.50
2022-09-23T03:45:42.440Z,99030.34
2022-09-23T03:48:09.306Z,99027.38
2022-09-23T03:50:36.163Z,99025.53
2022-09-23T03:53:02.783Z,99021.34
2022-09-23T03:55:29.332Z,99017.72
2022-09-23T03:57:56.615Z,99019.78
2022-09-23T04:00:23.435Z,99018.81
2022-09-23T04:02:50.015Z,99007.03
2022-09-23T04:05:17.816Z,99017.34
2022-09-23T04:07:44.481Z,99005.84
2022-09-23T04:10:11.195Z,99007.03
2022-09-23T04:12:38.225Z,99007.41
2022-09-23T04:15:06.031Z,99002.34
2022-09-23T04:17:32.625Z,99007.22
2022-09-23T04:19:59.190Z,99006.94
2022-09-23T04:22:26.211Z,99010.22
2022-09-23T04:24:52.826Z,98999.41
2022-09-23T04:27:19.471Z,99003.41
2022-09-23T04:29:46.030Z,99007.91
2022-09-23T04:32:12.610Z,99000.75
2022-09-23T04:34:39.167Z,98998.50
2022-09-23T04:37:05.735Z,99004.81
2022-09-23T04:39:32.642Z,99007.47
2022-09-23T04:41:59.591Z,98992.09
2022-09-23T04:44:27.956Z,99000.09
2022-09-23T04:46:55.509Z,99004.72
2022-09-23T04:49:22.104Z,98997.38
2022-09-23T04:51:48.675Z,99002.81
2022-09-23T04:54:15.698Z,98997.63
2022-09-23T04:56:42.356Z,98992.00
2022-09-23T04:59:09.362Z,98992.53
2022-09-23T05:01:36.504Z,98986.84
2022-09-23T05:04:07.519Z,98989.69
2022-09-23T05:06:35.560Z,98987.09
2022-09-23T05:09:05.380Z,98991.13
2022-09-23T05:11:32.442Z,98995.34
2022-09-23T05:13:59.555Z,99000.44
2022-09-23T05:16:27.147Z,98997.00
2022-09-23T05:18:54.372Z,99007.16
2022-09-23T05:21:28.759Z,99001.25
2022-09-23T05:23:58.837Z,99006.31
2022-09-23T05:26:28.976Z,99000.66
2022-09-23T05:28:55.944Z,99005.41
2022-09-23T05:31:26.224Z,99008.09
2022-09-23T05:34:00.695Z,99006.75
2022-09-23T05:36:34.230Z,99008.31
2022-09-23T05:39:04.590Z,99009.38
2022-09-23T05:41:31.746Z,99009.81
2022-09-23T05:43:59.587Z,99010.66
2022-09-23T05:46:29.316Z,99002.00
2022-09-23T05:49:02.166Z,99007.69
2022-09-23T05:51:31.109Z,99011.22
2022-09-23T05:53:59.195Z,99010.25
2022-09-23T05:56:28.472Z,99009.47
2022-09-23T05:58:58.481Z,99009.53
2022-09-23T06:01:28.365Z,99014.16
2022-09-23T06:03:57.577Z,99003.50
2022-09-23T06:06:31.384Z,99006.91
2022-09-23T06:09:00.601Z,99009.03
2022-09-23T06:11:31.240Z,99008.25
2022-09-23T06:14:02.144Z,99008.84
2022-09-23T06:16:33.561Z,99009.41
2022-09-23T06:19:05.934Z,99006.38
2022-09-23T06:21:35.788Z,99008.28
2022-09-23T06:24:02.996Z,99004.84
2022-09-23T06:26:32.521Z,99002.56
2022-09-23T06:29:01.434Z,99002.03
2022-09-23T06:31:28.834Z,99003.16
2022-09-23T06:34:06.003Z,98997.63
2022-09-23T06:36:43.447Z,98990.41
2022-09-23T06:39:12.000Z,98992.03
2022-09-23T06:41:39.099Z,99003.38
2022-09-23T06:44:05.932Z,98996.81
2022-09-23T06:46:32.728Z,98996.31
2022-09-23T06:48:59.419Z,98991.72
2022-09-23T06:51:26.472Z,98996.78
2022-09-23T06:53:53.094Z,98995.28
2022-09-23T06:56:21.883Z,99002.38
2022-09-23T06:58:48.793Z,99000.84
2022-09-23T07:01:17.186Z,98998.34
2022-09-23T07:03:45.497Z,99000.09
2022-09-23T07:06:12.115Z,98998.72
2022-09-23T07:08:39.772Z,99000.75
2022-09-23T07:11:07.311Z,98994.53
2022-09-23T07:13:34.491Z,98986.19
2022-09-23T07:16:02.073Z,98995.59
2022-09-23T07:18:36.728Z,98995.47
2022-09-23T07:21:16.920Z,98999.16
2022-09-23T07:23:45.905Z,98991.09
2022-09-23T07:26:16.471Z,98992.78
2022-09-23T07:28:43.519Z,98993.34
2022-09-23T07:31:14.202Z,98994.38
2022-09-23T07:33:43.898Z,99003.84
2022-09-23T07:36:17.114Z,99003.09
2022-09-23T07:38:45.811Z,98998.56
2022-09-23T07:41:16.777Z,98999.41
2022-09-23T07:43:44.911Z,99007.34
2022-09-23T07:46:16.277Z,99010.53
2022-09-23T07:48:44.282Z,98999.78
2022-09-23T07:51:25.574Z,99008.00
2022-09-23T07:53:54.427Z,99002.25
2022-09-23T07:56:24.964Z,98993.22
2022-09-23T07:59:00.802Z,98998.38
2022-09-23T08:01:33.634Z,98998.22
2022-09-23T08:04:11.981Z,98996.38
2022-09-23T08:06:43.877Z,98996.09
2022-09-23T08:09:11.368Z,99001.94
2022-09-23T08:11:42.366Z,99007.44
2022-09-23T08:14:13.367Z,99002.34
2022-09-23T08:16:41.659Z,99004.34
2022-09-23T08:19:08.920Z,99000.56
2022-09-23T08:21:35.875Z,98994.63
2022-09-23T08:24:02.657Z,98998.75
2022-09-23T08:26:29.323Z,98996.53
2022-09-23T08:28:56.362Z,98996.56
2022-09-23T08:31:23.827Z,98994.53
2022-09-23T08:33:57.972Z,98993.72
2022-09-23T08:36:25.770Z,98993.69
2022-09-23T08:38:52.905Z,98984.59
2022-09-23T08:41:28.601Z,98994.19
2022-09-23T08:44:03.489Z,98997.69
2022-09-23T08:46:38.004Z,98994.41
2022-09-23T08:49:07.326Z,99002.41
2022-09-23T08:51:46.128Z,98992.66
2022-09-23T08:54:13.974Z,98990.53
2022-09-23T08:56:44.740Z,98994.34
2022-09-23T08:59:28.650Z,98985.66
2022-09-23T09:02:05.226Z,98984.84
2022-09-23T09:04:45.912Z,98982.09
2022-09-23T09:07:38.802Z,98979.91
2022-09-23T09:10:18.777Z,98985.22
2022-09-23T09:12:54.427Z,98985.66
2022-09-23T09:15:27.415Z,98982.19
2022-09-23T09:18:07.476Z,98989.38
2022-09-23T09:21:13.895Z,98987.84
2022-09-23T09:24:16.562Z,98984.38
2022-09-23T09:26:43.190Z,98980.13
2022-09-23T09:29:35.500Z,98985.59
2022-09-23T09:32:58.095Z,98981.03
2022-09-23T09:35:36.665Z,98979.50
2022-09-23T09:38:05.654Z,98978.47
2022-09-23T09:40:34.524Z,98974.50
2022-09-23T09:43:04.548Z,98965.63
2022-09-23T09:46:21.646Z,98963.59
2022-09-23T09:48:59.814Z,98958.53
2022-09-23T09:51:29.246Z,98945.59
2022-09-23T09:54:23.165Z,98949.56
2022-09-23T09:56:51.666Z,98933.34
2022-09-23T09:59:27.687Z,98937.97
2022-09-23T10:02:27.818Z,98935.97
2022-09-23T10:05:00.147Z,98941.88
2022-09-23T10:07:30.849Z,98938.00
2022-09-23T10:10:01.897Z,98946.44
2022-09-23T10:12:46.764Z,98938.69
2022-09-23T10:15:44.710Z,98945.34
2022-09-23T10:18:28.923Z,98935.50
2022-09-23T10:21:06.957Z,98941.81
2022-09-23T10:23:38.713Z,98929.19
2022-09-23T10:26:08.082Z,98933.56
2022-09-23T10:28:55.486Z,98931.59
2022-09-23T10:31:28.851Z,98925.50
2022-09-23T10:34:00.696Z,98928.19
2022-09-23T10:36:30.975Z,98930.84
2022-09-23T10:39:32.359Z,98925.47
2022-09-23T10:42:30.924Z,98918.38
2022-09-23T10:45:49.618Z,98917.59
2022-09-23T10:48:36.136Z,98918.59
2022-09-23T10:51:14.416Z,98919.16
2022-09-23T10:54:19.124Z,98907.91
2022-09-23T10:57:02.195Z,98902.28
2022-09-23T11:00:01.109Z,98900.59
2022-09-23T11:03:00.728Z,98898.38
2022-09-23T11:05:51.414Z,98892.94
2022-09-23T11:08:36.246Z,98881.63
2022-09-23T11:11:26.101Z,98894.72
2022-09-23T11:14:05.060Z,98876.03
2022-09-23T11:16:47.394Z,98878.25
2022-09-23T11:19:45.429Z,98878.44
2022-09-23T11:22:38.354Z,98873.72
2022-09-23T11:25:31.108Z,98882.63
2022-09-23T11:28:17.691Z,98878.06
2022-09-23T11:31:06.230Z,98883.16
2022-09-23T11:34:01.510Z,98868.69
2022-09-23T11:36:38.198Z,98865.53
2022-09-23T11:39:31.106Z,98861.03
2022-09-23T11:41:59.972Z,98853.78
2022-09-23T11:44:35.536Z,98853.50
2022-09-23T11:47:20.746Z,98850.22
2022-09-23T11:50:10.694Z,98844.56
2022-09-23T11:52:48.069Z,98842.38
2022-09-23T11:55:25.421Z,98834.38
2022-09-23T11:57:59.883Z,98835.84
2022-09-23T12:00:34.275Z,98833.25
2022-09-23T12:03:44.509Z,98830.75
2022-09-23T12:06:19.770Z,98824.09
2022-09-23T12:08:47.096Z,98823.22
2022-09-23T12:11:37.647Z,98821.38
2022-09-23T12:14:15.805Z,98823.97
2022-09-23T12:17:10.670Z,98826.66
2022-09-23T12:20:19.497Z,98820.91
2022-09-23T12:23:07.692Z,98827.88
2022-09-23T12:25:54.648Z,98825.13
2022-09-23T12:28:27.750Z,98824.38
2022-09-23T12:30:58.589Z,98818.03
2022-09-23T12:33:33.956Z,98815.91
2022-09-23T12:36:09.566Z,98816.09
2022-09-23T12:39:02.957Z,98806.78
2022-09-23T12:41:37.416Z,98803.09
2022-09-23T12:44:41.612Z,98811.63
2022-09-23T12:47:27.933Z,98809.72
2022-09-23T12:49:56.493Z,98797.28
2022-09-23T12:52:33.095Z,98801.59
2022-09-23T12:55:38.341Z,98805.28
2022-09-23T12:58:56.802Z,98786.22
2022-09-23T13:01:25.827Z,98785.78
2022-09-23T13:04:15.144Z,98788.28
2022-09-23T13:06:56.439Z,98784.16
2022-09-23T13:09:31.198Z,98789.56
2022-09-23T13:12:01.791Z,98779.19
2022-09-23T13:14:32.539Z,98788.06
2022-09-23T13:16:59.569Z,98780.78
2022-09-23T13:19:26.170Z,98781.97
2022-09-23T13:22:08.852Z,98767.84
2022-09-23T13:24:45.034Z,98768.78
2022-09-23T13:27:19.017Z,98765.09
2022-09-23T13:30:16.546Z,98773.25
2022-09-23T13:33:11.038Z,98766.03
2022-09-23T13:35:43.257Z,98759.72
2022-09-23T13:38:18.765Z,98750.53
2022-09-23T13:40:46.210Z,98751.94
2022-09-23T13:43:41.467Z,98757.69
2022-09-23T13:46:23.623Z,98742.81
2022-09-23T13:48:55.089Z,98741.31
2022-09-23T13:51:32.101Z,98744.91
2022-09-23T13:54:01.798Z,98745.06
2022-09-23T13:56:31.760Z,98741.84
2022-09-23T13:59:25.605Z,98737.38
2022-09-23T14:02:16.848Z,98729.78
2022-09-23T14:04:44.306Z,98736.41
2022-09-23T14:07:16.713Z,98726.50
2022-09-23T14:09:49.826Z,98725.28
2022-09-23T14:12:22.094Z,98727.38
2022-09-23T14:14:51.545Z,98727.09
2022-09-23T14:17:22.731Z,98721.63
2022-09-23T14:19:50.609Z,98718.63
2022-09-23T14:22:29.029Z,98712.44
2022-09-23T14:24:57.553Z,98707.72
2022-09-23T14:27:33.282Z,98701.19
2022-09-23T14:30:02.759Z,98693.53
2022-09-23T14:32:30.290Z,98690.16
2022-09-23T14:34:59.688Z,98696.38
2022-09-23T14:37:57.276Z,98694.94
2022-09-23T14:40:33.494Z,98699.97
2022-09-23T14:43:25.984Z,98689.69
2022-09-23T14:45:56.916Z,98696.66
2022-09-23T14:48:28.506Z,98696.09
2022-09-23T14:51:04.932Z,98682.63
2022-09-23T14:53:46.253Z,98699.31
2022-09-23T14:56:16.480Z,98696.38
2022-09-23T14:58:52.626Z,98701.56
2022-09-23T15:01:34.620Z,98702.72
2022-09-23T15:04:17.091Z,98699.53
2022-09-23T15:07:03.452Z,98689.63
2022-09-23T15:09:36.334Z,98699.09
2022-09-23T15:12:18.765Z,98692.50
2022-09-23T15:14:51.646Z,98690.75
2022-09-23T15:17:23.953Z,98681.63
2022-09-23T15:19:58.951Z,98686.13
2022-09-23T15:22:26.043Z,98681.69
2022-09-23T15:25:08.456Z,98688.16
2022-09-23T15:27:35.454Z,98682.41
2022-09-23T15:30:15.337Z,98690.97
2022-09-23T15:32:46.596Z,98685.03
2022-09-23T15:35:19.036Z,98684.84
2022-09-23T15:37:49.133Z,98685.59
2022-09-23T15:40:29.184Z,98683.66
2022-09-23T15:43:02.332Z,98681.47
2022-09-23T15:45:33.043Z,98684.72
2022-09-23T15:48:11.415Z,98681.34
2022-09-23T15:50:39.244Z,98678.13
2022-09-23T15:53:06.606Z,98678.13
2022-09-23T15:55:33.708Z,98684.63
2022-09-23T15:58:00.990Z,98683.03
2022-09-23T16:00:27.710Z,98675.03
2022-09-23T16:02:54.588Z,98683.13
2022-09-23T16:05:40.030Z,98670.38
2022-09-23T16:08:09.955Z,98679.53
2022-09-23T16:10:37.756Z,98681.53
2022-09-23T16:13:11.557Z,98680.22
2022-09-23T16:15:41.185Z,98677.09
2022-09-23T16:18:09.501Z,98671.50
2022-09-23T16:20:44.568Z,98674.97
2022-09-23T16:23:33.954Z,98684.34
2022-09-23T16:26:05.358Z,98681.09
2022-09-23T16:28:31.972Z,98676.09
2022-09-23T16:30:58.604Z,98681.44
2022-09-23T16:33:25.174Z,98683.88
2022-09-23T16:35:51.793Z,98676.53
2022-09-23T16:38:18.470Z,98676.91
2022-09-23T16:40:47.318Z,98672.69
2022-09-23T16:43:14.353Z,98675.28
2022-09-23T16:45:41.038Z,98675.84
2022-09-23T16:48:07.682Z,98672.88
2022-09-23T16:50:34.459Z,98674.88
2022-09-23T16:53:01.547Z,98681.13
2022-09-23T16:55:28.327Z,98681.44
2022-09-23T16:57:55.535Z,98682.94
2022-09-23T17:00:41.804Z,98679.66
2022-09-23T17:03:31.303Z,98692.38
2022-09-23T17:05:58.313Z,98691.56
2022-09-23T17:08:24.956Z,98689.75
2022-09-23T17:10:58.479Z,98682.75
2022-09-23T17:13:28.104Z,98686.38
2022-09-23T17:15:55.251Z,98687.97
2022-09-23T17:18:22.047Z,98688.00
2022-09-23T17:21:03.485Z,98687.13
2022-09-23T17:23:31.647Z,98684.94
2022-09-23T17:25:59.744Z,98687.16
2022-09-23T17:28:26.679Z,98678.81
2022-09-23T17:30:58.258Z,98672.84
2022-09-23T17:33:27.634Z,98679.19
2022-09-23T17:35:56.665Z,98681.56
2022-09-23T17:38:28.683Z,98686.19
2022-09-23T17:40:58.888Z,98688.31
2022-09-23T17:43:31.372Z,98689.31
2022-09-23T17:46:09.929Z,98682.44
2022-09-23T17:48:41.160Z,98686.75
2022-09-23T17:51:15.367Z,98683.28
2022-09-23T17:53:45.209Z,98684.19
2022-09-23T17:56:26.744Z,98686.91
2022-09-23T17:58:54.015Z,98687.38
2022-09-23T18:01:24.970Z,98692.22
2022-09-23T18:04:04.342Z,98687.78
2022-09-23T18:06:37.656Z,98692.19
2022-09-23T18:09:07.567Z,98688.44
2022-09-23T18:11:40.275Z,98690.63
2022-09-23T18:14:12.027Z,98682.91
2022-09-23T18:16:42.393Z,98678.69
2022-09-23T18:19:13.700Z,98679.22
2022-09-23T18:21:44.998Z,98682.19
2022-09-23T18:26:59.733Z,98669.28
2022-09-23T18:29:26.576Z,98674.09
2022-09-23T18:31:53.422Z,98676.25
2022-09-23T18:34:20.382Z,98682.38
2022-09-23T18:36:47.307Z,98677.16
2022-09-23T18:39:14.223Z,98682.66
2022-09-23T18:41:41.123Z,98687.16
2022-09-23T18:44:08.593Z,98683.16
2022-09-23T18:46:35.358Z,98677.19
2022-09-23T18:49:20.495Z,98682.25
2022-09-23T18:51:52.428Z,98685.13
2022-09-23T18:54:19.752Z,98687.66
2022-09-23T18:56:46.624Z,98676.84
2022-09-23T18:59:19.374Z,98672.94
2022-09-23T19:01:48.199Z,98681.31
2022-09-23T19:04:19.292Z,98683.50
2022-09-23T19:06:46.471Z,98686.00
2022-09-23T19:09:15.314Z,98682.28
2022-09-23T19:11:42.798Z,98674.94
2022-09-23T19:14:11.548Z,98679.59
2022-09-23T19:16:39.619Z,98686.22
2022-09-23T19:19:07.056Z,98687.28
2022-09-23T19:21:34.592Z,98682.16
2022-09-23T19:24:07.181Z,98679.53
2022-09-23T19:26:40.141Z,98677.69
2022-09-23T19:29:08.806Z,98679.63
2022-09-23T19:31:41.678Z,98688.44
2022-09-23T19:34:14.010Z,98677.38
2022-09-23T19:36:44.421Z,98672.38
2022-09-23T19:39:26.853Z,98673.19
2022-09-23T19:41:55.630Z,98666.69
2022-09-23T19:44:24.963Z,98660.56
2022-09-23T19:46:56.322Z,98661.63
2022-09-23T19:49:24.920Z,98663.16
2022-09-23T19:51:54.973Z,98667.53
2022-09-23T19:54:21.569Z,98664.41
2022-09-23T19:56:49.499Z,98665.28
2022-09-23T19:59:18.794Z,98655.47
2022-09-23T20:01:47.319Z,98659.56
2022-09-23T20:04:15.472Z,98656.19
2022-09-23T20:06:42.073Z,98648.19
2022-09-23T20:09:08.704Z,98653.06
2022-09-23T20:11:36.126Z,98652.22
2022-09-23T20:14:04.768Z,98639.19
2022-09-23T20:16:34.910Z,98648.19
2022-09-23T20:19:02.756Z,98649.63
2022-09-23T20:21:29.846Z,98648.72
2022-09-23T20:23:58.070Z,98636.72
2022-09-23T20:26:43.655Z,98641.03
2022-09-23T20:29:10.947Z,98645.03
2022-09-23T20:31:40.124Z,98650.00
2022-09-23T20:34:07.912Z,98651.03
2022-09-23T20:36:35.887Z,98647.03
2022-09-23T20:39:07.874Z,98640.31
2022-09-23T20:41:37.716Z,98644.34
2022-09-23T20:44:09.552Z,98631.63
2022-09-23T20:46:36.763Z,98634.88
2022-09-23T20:49:04.373Z,98633.56
2022-09-23T20:51:33.641Z,98630.16
2022-09-23T20:54:00.693Z,98625.84
2022-09-23T20:56:28.503Z,98625.25
2022-09-23T20:59:02.388Z,98629.41
2022-09-23T21:01:32.156Z,98624.81
2022-09-23T21:03:58.730Z,98623.28
2022-09-23T21:06:25.996Z,98621.78
2022-09-23T21:08:54.440Z,98627.44
2022-09-23T21:11:21.885Z,98621.78
2022-09-23T21:13:51.588Z,98622.66
2022-09-23T21:16:24.391Z,98622.84
2022-09-23T21:18:51.985Z,98620.75
2022-09-23T21:21:21.930Z,98621.38
2022-09-23T21:23:49.666Z,98623.28
2022-09-23T21:26:23.098Z,98620.16
2022-09-23T21:28:52.928Z,98614.47
2022-09-23T21:31:23.245Z,98611.81
2022-09-23T21:34:02.321Z,98615.38
2022-09-23T21:36:32.618Z,98617.94
2022-09-23T21:39:01.588Z,98621.22
2022-09-23T21:41:28.449Z,98625.25
2022-09-23T21:43:56.177Z,98620.63
2022-09-23T21:46:24.021Z,98619.00
2022-09-23T21:48:53.559Z,98622.09
2022-09-23T21:51:27.852Z,98610.75
2022-09-23T21:53:56.745Z,98613.69
2022-09-23T21:56:26.314Z,98607.16
2022-09-23T21:58:54.925Z,98609.56
2022-09-23T22:01:27.829Z,98600.72
2022-09-23T22:04:09.146Z,98604.75
2022-09-23T22:06:38.238Z,98613.94
2022-09-23T22:09:09.448Z,98604.22
2022-09-23T22:11:56.494Z,98602.44
2022-09-23T22:14:27.313Z,98605.94
2022-09-23T22:16:58.947Z,98606.94
2022-09-23T22:19:28.684Z,98603.53
2022-09-23T22:21:56.002Z,98606.66
2022-09-23T22:24:22.984Z,98607.66
2022-09-23T22:26:50.128Z,98602.34
2022-09-23T22:29:35.935Z,98608.72
2022-09-23T22:32:24.025Z,98611.47
2022-09-23T22:34:52.124Z,98614.88
2022-09-23T22:37:33.999Z,98611.25
2022-09-23T22:40:10.613Z,98614.16
2022-09-23T22:42:37.379Z,98610.63
2022-09-23T22:45:07.984Z,98607.31
2022-09-23T22:47:37.819Z,98613.19
2022-09-23T22:50:06.685Z,98614.34
2022-09-23T22:52:33.721Z,98610.84
2022-09-23T22:55:00.716Z,98612.09
2022-09-23T22:57:27.804Z,98604.34
2022-09-23T22:59:54.517Z,98606.91
2022-09-23T23:02:23.564Z,98600.94
2022-09-23T23:04:50.644Z,98610.69
2022-09-23T23:07:20.745Z,98614.63
2022-09-23T23:09:51.709Z,98617.47
2022-09-23T23:12:20.115Z,98619.94
2022-09-23T23:14:48.075Z,98614.50
2022-09-23T23:17:17.016Z,98619.81
2022-09-23T23:19:43.676Z,98615.25
2022-09-23T23:22:10.316Z,98598.13
2022-09-23T23:24:36.959Z,98604.75
2022-09-23T23:27:03.656Z,98605.16
2022-09-23T23:29:30.256Z,98603.34
2022-09-23T23:31:56.892Z,98600.25
2022-09-23T23:34:24.412Z,98594.31
2022-09-23T23:36:54.345Z,98589.97
2022-09-23T23:39:25.541Z,98587.41
2022-09-23T23:41:57.426Z,98590.63
2022-09-23T23:44:26.096Z,98585.59
2022-09-23T23:46:53.949Z,98588.91
2022-09-23T23:49:21.382Z,98583.25
2022-09-23T23:51:48.471Z,98585.19
2022-09-23T23:54:15.603Z,98584.19
2022-09-23T23:56:42.585Z,98586.34
2022-09-23T23:59:09.400Z,98584.22
